Time;durP1;ratioP1;P1;durP2;ratioP2;P2;SDS_P1;SDS_P2;PMS_P1;PMS_P2;Temp;Humidity;BMP_temperature;BMP_pressure;BME280_temperature;BME280_humidity;BME280_pressure;Samples;Min_cycle;Max_cycle;Signal;HPM_P1;HPM_P2
2022/10/31 00:00:41;;;;;;;;;;;13.60;99.90;;;;;;5071381;28;19986;-65
2022/10/31 00:03:06;;;;;;;;;;;13.60;99.90;;;;;;5103911;28;20111;-65
2022/10/31 00:05:32;;;;;;;;;;;13.60;99.90;;;;;;5071536;28;20026;-64
2022/10/31 00:07:57;;;;;;;;;;;13.50;99.90;;;;;;5070058;28;19925;-65
2022/10/31 00:10:23;;;;;;;;;;;13.50;99.90;;;;;;5071418;28;19950;-69
2022/10/31 00:12:49;;;;;;;;;;;13.50;99.90;;;;;;5071230;28;19924;-72
2022/10/31 00:15:14;;;;;;;;;;;13.40;99.90;;;;;;5071255;28;20275;-65
2022/10/31 00:17:40;;;;;;;;;;;13.50;99.90;;;;;;5103870;28;19925;-65
2022/10/31 00:20:06;;;;;;;;;;;13.40;99.90;;;;;;5070956;28;19936;-65
2022/10/31 00:22:31;;;;;;;;;;;13.40;99.90;;;;;;5071235;28;19928;-65
2022/10/31 00:24:57;;;;;;;;;;;13.40;99.90;;;;;;5071077;28;19924;-65
2022/10/31 00:27:22;;;;;;;;;;;13.30;99.90;;;;;;5086860;28;19950;-66
2022/10/31 00:29:48;;;;;;;;;;;13.30;99.90;;;;;;5070369;28;20316;-65
2022/10/31 00:32:13;;;;;;;;;;;13.30;99.90;;;;;;5070953;28;20287;-68
2022/10/31 00:34:39;;;;;;;;;;;13.30;99.90;;;;;;5069893;28;20284;-65
2022/10/31 00:37:04;;;;;;;;;;;13.30;99.90;;;;;;5070530;28;20019;-65
2022/10/31 00:39:30;;;;;;;;;;;13.20;99.90;;;;;;5071221;28;19932;-65
2022/10/31 00:41:55;;;;;;;;;;;13.20;99.90;;;;;;5070502;28;19931;-69
2022/10/31 00:44:21;;;;;;;;;;;13.20;99.90;;;;;;5070996;28;19924;-69
2022/10/31 00:46:46;;;;;;;;;;;13.20;99.90;;;;;;5071213;28;19931;-65
2022/10/31 00:49:12;;;;;;;;;;;13.20;99.90;;;;;;5103162;28;19952;-65
2022/10/31 00:51:38;;;;;;;;;;;13.20;99.90;;;;;;5103627;28;19924;-65
2022/10/31 00:54:03;;;;;;;;;;;13.20;99.90;;;;;;5070563;28;19924;-65
2022/10/31 00:56:29;;;;;;;;;;;13.10;99.90;;;;;;5071092;28;19932;-65
2022/10/31 00:58:54;;;;;;;;;;;13.10;99.90;;;;;;5071240;28;19971;-65
2022/10/31 01:01:20;;;;;;;;;;;13.00;99.90;;;;;;5069484;28;19970;-66
2022/10/31 01:03:45;;;;;;;;;;;13.10;99.90;;;;;;5070828;28;19928;-66
2022/10/31 01:06:12;;;;;;;;;;;13.00;99.90;;;;;;5103272;28;20291;-65
2022/10/31 01:08:38;;;;;;;;;;;13.00;99.90;;;;;;5070004;28;19924;-65
2022/10/31 01:11:03;;;;;;;;;;;13.00;99.90;;;;;;5069682;28;19974;-65
2022/10/31 01:13:29;;;;;;;;;;;13.00;99.90;;;;;;5074481;28;19931;-66
2022/10/31 01:15:55;;;;;;;;;;;13.00;99.90;;;;;;5074261;28;20243;-65
2022/10/31 01:18:21;;;;;;;;;;;12.90;99.90;;;;;;5072823;28;19920;-65
2022/10/31 01:20:47;;;;;;;;;;;13.10;99.90;;;;;;5073114;28;19924;-65
2022/10/31 01:23:12;;;;;;;;;;;13.00;99.90;;;;;;5073854;28;20398;-66
2022/10/31 01:25:38;;;;;;;;;;;12.90;99.90;;;;;;5073061;28;19924;-65
2022/10/31 01:28:03;;;;;;;;;;;12.90;99.90;;;;;;5106537;28;19924;-66
2022/10/31 01:30:29;;;;;;;;;;;12.90;99.90;;;;;;5107002;28;19931;-65
2022/10/31 01:32:54;;;;;;;;;;;12.70;99.90;;;;;;5089612;28;20010;-65
2022/10/31 01:35:20;;;;;;;;;;;12.90;99.90;;;;;;5106626;28;20367;-65
2022/10/31 01:37:45;;;;;;;;;;;12.90;99.90;;;;;;5074136;28;19997;-65
2022/10/31 01:40:11;;;;;;;;;;;12.90;99.90;;;;;;5073257;28;20268;-64
2022/10/31 01:42:36;;;;;;;;;;;12.90;99.90;;;;;;5072443;28;19924;-67
2022/10/31 01:45:02;;;;;;;;;;;12.80;99.90;;;;;;5073823;28;19932;-66
2022/10/31 01:47:45;;;;;;;;;;;12.90;99.90;;;;;;5073758;28;19947;-65
2022/10/31 01:50:13;;;;;;;;;;;12.80;99.90;;;;;;5072744;28;20300;-65
2022/10/31 01:52:41;;;;;;;;;;;12.80;99.90;;;;;;5073756;28;20286;-65
2022/10/31 01:55:13;;;;;;;;;;;12.80;99.90;;;;;;5073692;28;19928;-73
2022/10/31 01:57:41;;;;;;;;;;;12.80;99.90;;;;;;5072576;28;19924;-65
2022/10/31 02:00:08;;;;;;;;;;;12.80;99.90;;;;;;5073274;28;19968;-72
2022/10/31 02:02:34;;;;;;;;;;;12.80;99.90;;;;;;5073647;28;19924;-68
2022/10/31 02:05:01;;;;;;;;;;;12.70;99.90;;;;;;5073420;28;20329;-65
2022/10/31 02:07:30;;;;;;;;;;;12.70;99.90;;;;;;5105603;28;20024;-64
2022/10/31 02:09:56;;;;;;;;;;;12.70;99.90;;;;;;5073555;28;19925;-65
2022/10/31 02:12:22;;;;;;;;;;;12.70;99.90;;;;;;5072193;28;19929;-65
2022/10/31 02:14:47;;;;;;;;;;;12.60;99.90;;;;;;5073490;28;19931;-65
2022/10/31 02:17:13;;;;;;;;;;;12.60;99.90;;;;;;5105456;28;19936;-69
2022/10/31 02:19:45;;;;;;;;;;;12.60;99.90;;;;;;5073323;28;19924;-64
2022/10/31 02:22:16;;;;;;;;;;;12.60;99.90;;;;;;5072637;28;19932;-73
2022/10/31 02:25:01;;;;;;;;;;;12.60;99.90;;;;;;5072738;28;19935;-64
2022/10/31 02:27:45;;;;;;;;;;;12.50;99.90;;;;;;5105574;28;19944;-65
2022/10/31 02:30:23;;;;;;;;;;;12.50;99.90;;;;;;5072731;28;20092;-73
2022/10/31 02:32:52;;;;;;;;;;;12.50;99.90;;;;;;5072652;28;19925;-66
2022/10/31 02:35:35;;;;;;;;;;;12.50;99.90;;;;;;5072716;28;19932;-65
2022/10/31 02:38:18;;;;;;;;;;;12.50;99.90;;;;;;5072865;28;20268;-65
2022/10/31 02:40:44;;;;;;;;;;;12.40;99.90;;;;;;5072559;28;19930;-65
2022/10/31 02:43:14;;;;;;;;;;;12.40;99.90;;;;;;5072506;28;19924;-65
2022/10/31 02:45:44;;;;;;;;;;;12.40;99.90;;;;;;5105671;28;19925;-65
2022/10/31 02:48:12;;;;;;;;;;;12.40;99.90;;;;;;5072639;28;20017;-65
2022/10/31 02:50:40;;;;;;;;;;;12.40;99.90;;;;;;5072232;28;19933;-65
2022/10/31 02:53:06;;;;;;;;;;;12.40;99.90;;;;;;5072525;28;20296;-65
2022/10/31 02:55:35;;;;;;;;;;;12.40;99.90;;;;;;5072178;28;19932;-65
2022/10/31 02:58:00;;;;;;;;;;;12.30;99.90;;;;;;5072831;28;20240;-65
2022/10/31 03:00:26;;;;;;;;;;;12.30;99.90;;;;;;5072116;28;19925;-65
2022/10/31 03:03:14;;;;;;;;;;;12.30;99.90;;;;;;5072625;28;20307;-65
2022/10/31 03:05:43;;;;;;;;;;;12.30;99.90;;;;;;5071290;28;20368;-65
2022/10/31 03:08:27;;;;;;;;;;;12.20;99.90;;;;;;5072581;28;20066;-70
2022/10/31 03:10:57;;;;;;;;;;;12.20;99.90;;;;;;5071466;28;19982;-65
2022/10/31 03:13:26;;;;;;;;;;;12.20;99.90;;;;;;5072048;28;19925;-68
2022/10/31 03:15:54;;;;;;;;;;;12.20;99.90;;;;;;5072477;28;19924;-65
2022/10/31 03:18:31;;;;;;;;;;;12.20;99.90;;;;;;5070407;28;20399;-72
2022/10/31 03:21:01;;;;;;;;;;;12.20;99.90;;;;;;5104848;28;19925;-65
2022/10/31 03:23:28;;;;;;;;;;;12.20;99.90;;;;;;5071891;28;19943;-67
2022/10/31 03:25:54;;;;;;;;;;;12.10;99.90;;;;;;5072653;28;20025;-65
2022/10/31 03:28:23;;;;;;;;;;;12.10;99.90;;;;;;5072217;28;19925;-71
2022/10/31 03:30:50;;;;;;;;;;;12.10;99.90;;;;;;5071099;28;19978;-65
2022/10/31 03:33:18;;;;;;;;;;;12.10;99.90;;;;;;5072283;28;19924;-65
2022/10/31 03:35:46;;;;;;;;;;;12.00;99.90;;;;;;5103683;28;19920;-65
2022/10/31 03:38:12;;;;;;;;;;;12.00;99.90;;;;;;5071885;28;19935;-66
2022/10/31 03:40:40;;;;;;;;;;;12.00;99.90;;;;;;5071590;28;20027;-65
2022/10/31 03:43:08;;;;;;;;;;;12.00;99.90;;;;;;5070908;28;19986;-65
2022/10/31 03:45:37;;;;;;;;;;;12.00;99.90;;;;;;5087414;28;19924;-65
2022/10/31 03:48:03;;;;;;;;;;;12.00;99.90;;;;;;5071802;28;20372;-65
2022/10/31 03:50:35;;;;;;;;;;;11.90;99.90;;;;;;5071770;28;20027;-67
2022/10/31 03:53:07;;;;;;;;;;;11.90;99.90;;;;;;5070046;28;20273;-65
2022/10/31 03:55:39;;;;;;;;;;;12.00;99.90;;;;;;5071475;28;19985;-65
2022/10/31 03:58:14;;;;;;;;;;;11.90;99.90;;;;;;5071698;28;19924;-66
2022/10/31 04:00:41;;;;;;;;;;;11.90;99.90;;;;;;5071442;28;19987;-67
2022/10/31 04:03:11;;;;;;;;;;;11.90;99.90;;;;;;5071505;28;19924;-66
2022/10/31 04:05:37;;;;;;;;;;;11.90;99.90;;;;;;5071412;28;19977;-65
2022/10/31 04:08:04;;;;;;;;;;;11.90;99.90;;;;;;5071719;28;20290;-65
2022/10/31 04:10:30;;;;;;;;;;;11.80;99.90;;;;;;5104225;28;20051;-72
2022/10/31 04:13:00;;;;;;;;;;;11.80;99.90;;;;;;5070602;28;19951;-66
2022/10/31 04:15:26;;;;;;;;;;;11.80;99.90;;;;;;5071694;28;20342;-67
2022/10/31 04:17:53;;;;;;;;;;;11.80;99.90;;;;;;5071544;28;20028;-65
2022/10/31 04:20:29;;;;;;;;;;;11.80;99.90;;;;;;5104573;28;19985;-66
2022/10/31 04:22:54;;;;;;;;;;;11.80;99.90;;;;;;5071358;28;19983;-65
2022/10/31 04:25:20;;;;;;;;;;;11.80;99.90;;;;;;5071587;28;19980;-65
2022/10/31 04:27:45;;;;;;;;;;;11.80;99.90;;;;;;5103555;28;19924;-67
2022/10/31 04:30:11;;;;;;;;;;;11.70;99.90;;;;;;5071656;28;19924;-65
2022/10/31 04:32:37;;;;;;;;;;;11.70;99.90;;;;;;5070997;28;19925;-66
2022/10/31 04:35:02;;;;;;;;;;;11.60;99.90;;;;;;5071186;28;19935;-65
2022/10/31 04:37:28;;;;;;;;;;;11.70;99.90;;;;;;5071602;28;20264;-65
2022/10/31 04:39:53;;;;;;;;;;;11.60;99.90;;;;;;5069583;28;19928;-67
2022/10/31 04:42:19;;;;;;;;;;;11.60;99.90;;;;;;5103809;28;19985;-65
2022/10/31 04:44:44;;;;;;;;;;;11.60;99.90;;;;;;5086607;28;19932;-64
2022/10/31 04:47:10;;;;;;;;;;;11.60;99.90;;;;;;5072537;28;19924;-64
2022/10/31 04:49:36;;;;;;;;;;;11.60;99.90;;;;;;5107511;28;19931;-72
2022/10/31 04:52:03;;;;;;;;;;;11.60;99.90;;;;;;5074351;28;20417;-64
2022/10/31 04:54:29;;;;;;;;;;;11.60;99.90;;;;;;5074544;28;20429;-64
2022/10/31 04:56:54;;;;;;;;;;;11.50;99.90;;;;;;5074645;28;19959;-66
2022/10/31 04:59:20;;;;;;;;;;;11.50;99.90;;;;;;5074936;28;19925;-65
2022/10/31 05:01:45;;;;;;;;;;;11.50;99.90;;;;;;5074386;28;19932;-65
2022/10/31 05:04:11;;;;;;;;;;;11.50;99.90;;;;;;5073828;28;19976;-64
2022/10/31 05:06:36;;;;;;;;;;;11.50;99.90;;;;;;5074766;28;20380;-72
2022/10/31 05:09:02;;;;;;;;;;;11.40;99.90;;;;;;5073455;28;20345;-69
2022/10/31 05:11:27;;;;;;;;;;;11.40;99.90;;;;;;5107901;28;19924;-65
2022/10/31 05:13:53;;;;;;;;;;;11.40;99.90;;;;;;5074379;28;20287;-66
2022/10/31 05:16:19;;;;;;;;;;;11.40;99.90;;;;;;5074658;28;20284;-66
2022/10/31 05:18:44;;;;;;;;;;;11.40;99.90;;;;;;5089964;28;19973;-67
2022/10/31 05:21:10;;;;;;;;;;;11.40;99.90;;;;;;5073589;28;19924;-66
2022/10/31 05:23:35;;;;;;;;;;;11.40;99.90;;;;;;5107548;28;19924;-64
2022/10/31 05:26:01;;;;;;;;;;;11.30;99.90;;;;;;5106377;28;20023;-65
2022/10/31 05:28:26;;;;;;;;;;;11.30;99.90;;;;;;5074486;28;20299;-65
2022/10/31 05:30:52;;;;;;;;;;;11.30;99.90;;;;;;5106693;28;19928;-64
2022/10/31 05:33:18;;;;;;;;;;;11.30;99.90;;;;;;5073298;28;19925;-66
2022/10/31 05:35:43;;;;;;;;;;;11.30;99.90;;;;;;5073673;28;20326;-72
2022/10/31 05:38:09;;;;;;;;;;;11.30;99.90;;;;;;5074268;28;19924;-65
2022/10/31 05:40:34;;;;;;;;;;;11.30;99.90;;;;;;5074185;28;19924;-65
2022/10/31 05:43:00;;;;;;;;;;;11.30;99.90;;;;;;5074101;28;19982;-64
2022/10/31 05:45:25;;;;;;;;;;;11.20;99.90;;;;;;5072553;28;20399;-65
2022/10/31 05:47:51;;;;;;;;;;;11.20;99.90;;;;;;5106567;28;20069;-65
2022/10/31 05:50:16;;;;;;;;;;;11.20;99.90;;;;;;5074063;28;20007;-66
2022/10/31 05:52:42;;;;;;;;;;;11.20;99.90;;;;;;5073393;28;19985;-65
2022/10/31 05:55:08;;;;;;;;;;;11.30;99.90;;;;;;5073616;28;19924;-65
2022/10/31 05:57:33;;;;;;;;;;;11.20;99.90;;;;;;5072625;28;19925;-65
2022/10/31 05:59:59;;;;;;;;;;;11.20;99.90;;;;;;5106077;28;19924;-65
2022/10/31 06:02:26;;;;;;;;;;;11.30;99.90;;;;;;5072277;28;19925;-65
2022/10/31 06:04:52;;;;;;;;;;;11.20;99.90;;;;;;5073286;28;19935;-65
2022/10/31 06:07:17;;;;;;;;;;;11.20;99.90;;;;;;5073628;28;20291;-64
2022/10/31 06:09:43;;;;;;;;;;;11.20;99.90;;;;;;5073666;28;19943;-66
2022/10/31 06:12:09;;;;;;;;;;;11.20;99.90;;;;;;5073295;28;19931;-64
2022/10/31 06:14:34;;;;;;;;;;;11.10;99.90;;;;;;5073684;28;19968;-65
2022/10/31 06:17:00;;;;;;;;;;;11.20;99.90;;;;;;5073273;28;19925;-65
2022/10/31 06:19:25;;;;;;;;;;;11.20;99.90;;;;;;5073283;28;19925;-65
2022/10/31 06:21:51;;;;;;;;;;;11.20;99.90;;;;;;5072904;28;20406;-66
2022/10/31 06:24:17;;;;;;;;;;;11.20;99.90;;;;;;5073385;28;19925;-65
2022/10/31 06:26:42;;;;;;;;;;;11.20;99.90;;;;;;5072009;28;19924;-64
2022/10/31 06:29:08;;;;;;;;;;;11.20;99.90;;;;;;5105630;28;19924;-65
2022/10/31 06:31:33;;;;;;;;;;;11.10;99.90;;;;;;5073127;28;20378;-65
2022/10/31 06:33:59;;;;;;;;;;;11.10;99.90;;;;;;5105442;28;20391;-65
2022/10/31 06:36:24;;;;;;;;;;;11.10;99.90;;;;;;5072031;28;19925;-65
2022/10/31 06:38:50;;;;;;;;;;;11.10;99.90;;;;;;5072518;28;19925;-65
2022/10/31 06:41:16;;;;;;;;;;;11.20;99.90;;;;;;5072139;28;20276;-65
2022/10/31 06:43:41;;;;;;;;;;;11.10;99.90;;;;;;5072629;28;20015;-64
2022/10/31 06:46:07;;;;;;;;;;;11.10;99.90;;;;;;5071149;28;20306;-64
2022/10/31 06:48:32;;;;;;;;;;;11.20;99.90;;;;;;5072734;28;19924;-66
2022/10/31 06:50:59;;;;;;;;;;;11.20;99.90;;;;;;5087637;28;19974;-65
2022/10/31 06:53:25;;;;;;;;;;;11.20;99.90;;;;;;5104898;28;19932;-66
2022/10/31 06:55:51;;;;;;;;;;;11.20;99.90;;;;;;5072370;28;19925;-65
2022/10/31 06:58:16;;;;;;;;;;;11.20;99.90;;;;;;5071887;28;19931;-65
2022/10/31 07:00:42;;;;;;;;;;;11.20;99.90;;;;;;5105187;28;19928;-65
2022/10/31 07:03:12;;;;;;;;;;;11.30;99.90;;;;;;5072212;28;20062;-65
2022/10/31 07:05:37;;;;;;;;;;;11.30;99.90;;;;;;5072532;28;20037;-65
2022/10/31 07:08:05;;;;;;;;;;;11.30;99.90;;;;;;5072489;28;20333;-66
2022/10/31 07:10:32;;;;;;;;;;;11.40;99.90;;;;;;5071577;28;20231;-65
2022/10/31 07:12:58;;;;;;;;;;;11.40;99.90;;;;;;5087882;28;19925;-72
2022/10/31 07:15:24;;;;;;;;;;;11.40;99.90;;;;;;5072253;28;19925;-66
2022/10/31 07:17:50;;;;;;;;;;;11.40;99.90;;;;;;5071436;28;19936;-66
2022/10/31 07:20:15;;;;;;;;;;;11.50;99.90;;;;;;5071911;28;20449;-65
2022/10/31 07:22:41;;;;;;;;;;;11.60;99.90;;;;;;5072095;28;20015;-64
2022/10/31 07:25:07;;;;;;;;;;;11.70;99.90;;;;;;5104297;28;20383;-64
2022/10/31 07:27:39;;;;;;;;;;;11.80;99.90;;;;;;5072082;28;19948;-64
2022/10/31 07:30:05;;;;;;;;;;;12.00;99.90;;;;;;5071641;28;19932;-68
2022/10/31 07:32:37;;;;;;;;;;;12.40;99.90;;;;;;5072152;28;19928;-65
2022/10/31 07:35:03;;;;;;;;;;;12.90;99.90;;;;;;5070703;28;19932;-67
2022/10/31 07:37:29;;;;;;;;;;;13.50;99.90;;;;;;5087358;28;19925;-66
2022/10/31 07:39:54;;;;;;;;;;;14.10;99.90;;;;;;5071743;28;19925;-65
2022/10/31 07:42:20;;;;;;;;;;;14.20;99.90;;;;;;5071440;28;20020;-65
2022/10/31 07:44:45;;;;;;;;;;;14.00;99.90;;;;;;5087429;28;20380;-65
2022/10/31 07:47:11;;;;;;;;;;;13.80;99.90;;;;;;5104143;28;19941;-65
2022/10/31 07:49:36;;;;;;;;;;;13.50;99.90;;;;;;5071518;28;19983;-65
2022/10/31 07:52:02;;;;;;;;;;;13.40;99.90;;;;;;5071560;28;19936;-66
2022/10/31 07:54:27;;;;;;;;;;;13.20;99.90;;;;;;5070718;28;20355;-65
2022/10/31 07:56:53;;;;;;;;;;;13.00;99.90;;;;;;5071690;28;19925;-66
2022/10/31 07:59:19;;;;;;;;;;;13.00;99.90;;;;;;5071094;28;20353;-65
2022/10/31 08:01:44;;;;;;;;;;;12.90;99.90;;;;;;5071706;28;19924;-65
2022/10/31 08:04:10;;;;;;;;;;;12.80;99.90;;;;;;5103748;28;20025;-65
2022/10/31 08:06:35;;;;;;;;;;;12.80;99.90;;;;;;5104437;28;20018;-65
2022/10/31 08:09:01;;;;;;;;;;;12.70;99.90;;;;;;5087689;28;19925;-66
2022/10/31 08:11:26;;;;;;;;;;;12.80;99.90;;;;;;5103753;28;20023;-65
2022/10/31 08:13:52;;;;;;;;;;;12.80;99.90;;;;;;5071474;28;19924;-65
2022/10/31 08:16:18;;;;;;;;;;;12.80;99.90;;;;;;5070941;28;19950;-65
2022/10/31 08:18:43;;;;;;;;;;;12.80;99.90;;;;;;5071401;28;19930;-66
2022/10/31 08:21:10;;;;;;;;;;;12.90;99.90;;;;;;5106439;28;20295;-74
2022/10/31 08:23:35;;;;;;;;;;;13.10;99.90;;;;;;5075818;28;20286;-66
2022/10/31 08:26:01;;;;;;;;;;;13.70;99.90;;;;;;5075017;28;20279;-66
2022/10/31 08:28:27;;;;;;;;;;;14.60;99.90;;;;;;5107605;28;19925;-66
2022/10/31 08:30:52;;;;;;;;;;;15.20;99.90;;;;;;5075386;28;19925;-66
2022/10/31 08:33:18;;;;;;;;;;;15.50;99.90;;;;;;5074936;28;19932;-66
2022/10/31 08:35:44;;;;;;;;;;;15.30;99.90;;;;;;5074517;28;19932;-65
2022/10/31 08:38:11;;;;;;;;;;;15.00;99.90;;;;;;5075411;28;19925;-67
2022/10/31 08:40:37;;;;;;;;;;;14.70;99.90;;;;;;5073978;28;19932;-66
2022/10/31 08:43:04;;;;;;;;;;;14.50;99.90;;;;;;5074216;28;19925;-66
2022/10/31 08:45:30;;;;;;;;;;;14.20;99.90;;;;;;5074842;28;19978;-65
2022/10/31 08:47:56;;;;;;;;;;;14.00;99.90;;;;;;5074979;28;19924;-65
2022/10/31 08:50:22;;;;;;;;;;;13.90;99.90;;;;;;5074672;28;19952;-65
2022/10/31 08:52:48;;;;;;;;;;;13.90;99.90;;;;;;5074628;28;19924;-65
2022/10/31 08:55:13;;;;;;;;;;;13.80;99.90;;;;;;5073697;28;19924;-65
2022/10/31 08:57:39;;;;;;;;;;;13.80;99.90;;;;;;5074496;28;20278;-65
2022/10/31 09:00:05;;;;;;;;;;;13.70;99.90;;;;;;5107935;28;19924;-66
2022/10/31 09:02:30;;;;;;;;;;;13.70;99.90;;;;;;5074545;28;19924;-66
2022/10/31 09:04:56;;;;;;;;;;;13.60;99.90;;;;;;5074811;28;19924;-65
2022/10/31 09:07:21;;;;;;;;;;;13.60;99.90;;;;;;5073237;28;19942;-66
2022/10/31 09:09:47;;;;;;;;;;;13.60;99.90;;;;;;5074792;28;20028;-66
2022/10/31 09:12:13;;;;;;;;;;;13.60;99.90;;;;;;5074915;28;20283;-66
2022/10/31 09:14:38;;;;;;;;;;;13.60;99.90;;;;;;5074293;28;19920;-65
2022/10/31 09:17:04;;;;;;;;;;;13.60;99.90;;;;;;5107544;28;19924;-65
2022/10/31 09:19:30;;;;;;;;;;;13.60;99.90;;;;;;5072839;28;19974;-71
2022/10/31 09:21:55;;;;;;;;;;;13.60;99.90;;;;;;5074686;28;19924;-65
2022/10/31 09:24:21;;;;;;;;;;;13.60;99.90;;;;;;5074238;28;19970;-73
2022/10/31 09:26:46;;;;;;;;;;;13.60;99.90;;;;;;5089645;28;20272;-65
2022/10/31 09:29:12;;;;;;;;;;;13.70;99.90;;;;;;5074731;28;19936;-66
2022/10/31 09:31:37;;;;;;;;;;;13.70;99.90;;;;;;5072699;28;20027;-65
2022/10/31 09:34:03;;;;;;;;;;;13.60;99.90;;;;;;5073960;28;19978;-67
2022/10/31 09:36:29;;;;;;;;;;;13.60;99.90;;;;;;5073429;28;20273;-68
2022/10/31 09:38:54;;;;;;;;;;;13.60;99.90;;;;;;5073945;28;19925;-64
2022/10/31 09:41:23;;;;;;;;;;;13.60;99.90;;;;;;5074054;28;19961;-64
2022/10/31 09:44:18;;;;;;;;;;;13.60;99.90;;;;;;5073140;28;19925;-61
2022/10/31 09:46:49;;;;;;;;;;;13.60;99.90;;;;;;5072846;28;19935;-65
2022/10/31 09:49:18;;;;;;;;;;;13.60;99.90;;;;;;5074320;28;20080;-64
2022/10/31 09:51:46;;;;;;;;;;;13.50;99.90;;;;;;5073725;28;20408;-65
2022/10/31 09:54:25;;;;;;;;;;;13.60;99.90;;;;;;5073730;28;19985;-65
2022/10/31 09:56:50;;;;;;;;;;;13.60;99.90;;;;;;5074143;28;19924;-69
2022/10/31 09:59:45;;;;;;;;;;;13.70;99.90;;;;;;5073865;28;19947;-66
2022/10/31 10:02:26;;;;;;;;;;;13.70;99.90;;;;;;5072965;28;19924;-68
2022/10/31 10:04:52;;;;;;;;;;;13.80;99.90;;;;;;5074108;28;19979;-67
2022/10/31 10:07:24;;;;;;;;;;;13.80;99.90;;;;;;5073688;28;20422;-67
2022/10/31 10:09:50;;;;;;;;;;;13.90;99.90;;;;;;5073378;28;19924;-70
2022/10/31 10:12:18;;;;;;;;;;;13.90;99.90;;;;;;5072596;28;19931;-67
2022/10/31 10:14:44;;;;;;;;;;;14.00;99.90;;;;;;5072473;28;19920;-68
2022/10/31 10:17:27;;;;;;;;;;;14.00;99.90;;;;;;5073959;28;19932;-67
2022/10/31 10:20:11;;;;;;;;;;;14.10;99.90;;;;;;5106266;28;20380;-68
2022/10/31 10:22:46;;;;;;;;;;;14.10;99.90;;;;;;5088476;28;19981;-67
2022/10/31 10:25:18;;;;;;;;;;;14.10;99.90;;;;;;5073663;28;19935;-66
2022/10/31 10:27:46;;;;;;;;;;;14.20;99.90;;;;;;5088694;28;19932;-66
2022/10/31 10:30:17;;;;;;;;;;;14.30;99.90;;;;;;5073014;28;19929;-69
2022/10/31 10:32:59;;;;;;;;;;;14.40;99.90;;;;;;5071890;28;19924;-66
2022/10/31 10:35:31;;;;;;;;;;;14.40;99.90;;;;;;5073589;28;19925;-67
2022/10/31 10:38:08;;;;;;;;;;;14.50;99.90;;;;;;5106001;28;19924;-67
2022/10/31 10:40:34;;;;;;;;;;;14.60;99.90;;;;;;5071024;28;19925;-67
2022/10/31 10:43:20;;;;;;;;;;;14.70;99.90;;;;;;5072604;28;19929;-66
2022/10/31 10:48:50;;;;;;;;;;;15.00;99.90;;;;;;5073011;28;19924;-66
2022/10/31 10:51:19;;;;;;;;;;;15.00;99.90;;;;;;5071301;28;19929;-70
2022/10/31 10:54:01;;;;;;;;;;;15.10;99.90;;;;;;5072750;28;19998;-69
2022/10/31 10:56:29;;;;;;;;;;;15.10;99.90;;;;;;5072083;28;19930;-69
2022/10/31 10:58:55;;;;;;;;;;;15.10;99.90;;;;;;5105628;28;19928;-69
2022/10/31 11:01:22;;;;;;;;;;;15.10;99.90;;;;;;5072796;28;20394;-69
2022/10/31 11:03:47;;;;;;;;;;;15.00;99.90;;;;;;5071605;28;19932;-70
2022/10/31 11:06:20;;;;;;;;;;;15.10;99.90;;;;;;5072752;28;19924;-68
2022/10/31 11:08:46;;;;;;;;;;;15.10;99.90;;;;;;5071679;28;20342;-69
2022/10/31 11:11:17;;;;;;;;;;;15.20;99.90;;;;;;5072874;28;19929;-69
2022/10/31 11:13:52;;;;;;;;;;;15.20;99.90;;;;;;5105550;28;19925;-69
2022/10/31 11:16:20;;;;;;;;;;;15.30;99.90;;;;;;5073029;28;19931;-69
2022/10/31 11:18:46;;;;;;;;;;;15.30;99.90;;;;;;5071456;28;20027;-69
2022/10/31 11:21:38;;;;;;;;;;;15.40;99.90;;;;;;5071892;28;19928;-69
2022/10/31 11:24:07;;;;;;;;;;;15.30;99.90;;;;;;5070298;28;20127;-69
2022/10/31 11:26:35;;;;;;;;;;;15.30;99.90;;;;;;5072847;28;20065;-68
2022/10/31 11:29:02;;;;;;;;;;;15.30;99.90;;;;;;5104707;28;20022;-70
2022/10/31 11:31:28;;;;;;;;;;;15.30;99.90;;;;;;5105941;28;19925;-68
2022/10/31 11:33:57;;;;;;;;;;;15.30;99.90;;;;;;5071347;28;19925;-69
2022/10/31 11:36:29;;;;;;;;;;;15.30;99.90;;;;;;5071547;28;19932;-68
2022/10/31 11:38:54;;;;;;;;;;;15.30;99.90;;;;;;5054737;28;19939;-69
2022/10/31 11:41:38;;;;;;;;;;;15.30;99.90;;;;;;5088433;28;19928;-68
2022/10/31 11:44:16;;;;;;;;;;;15.30;99.90;;;;;;5087907;28;20318;-68
2022/10/31 11:46:43;;;;;;;;;;;15.30;99.90;;;;;;5105347;28;19924;-69
2022/10/31 11:49:15;;;;;;;;;;;15.30;99.90;;;;;;5071354;28;19925;-69
2022/10/31 11:51:41;;;;;;;;;;;15.30;99.90;;;;;;5105421;28;19939;-69
2022/10/31 11:54:18;;;;;;;;;;;15.20;99.90;;;;;;5070713;28;19932;-71
2022/10/31 11:56:44;;;;;;;;;;;15.20;99.90;;;;;;5072089;28;19932;-71
2022/10/31 11:59:19;;;;;;;;;;;15.20;99.90;;;;;;5071285;28;19925;-69
2022/10/31 12:01:49;;;;;;;;;;;15.20;99.90;;;;;;5104992;28;19997;-69
2022/10/31 12:04:16;;;;;;;;;;;15.20;99.90;;;;;;5105290;28;19924;-68
2022/10/31 12:06:46;;;;;;;;;;;15.30;99.90;;;;;;5104197;28;19935;-68
2022/10/31 12:09:22;;;;;;;;;;;15.30;99.90;;;;;;5071129;28;19975;-69
2022/10/31 12:12:06;;;;;;;;;;;15.30;99.90;;;;;;5070574;28;20021;-69
2022/10/31 12:14:50;;;;;;;;;;;15.40;99.90;;;;;;5071305;28;20023;-70
2022/10/31 12:17:19;;;;;;;;;;;15.40;99.90;;;;;;5071446;28;20295;-71
2022/10/31 12:19:48;;;;;;;;;;;15.30;99.90;;;;;;5087940;28;20025;-68
2022/10/31 12:22:13;;;;;;;;;;;15.40;99.90;;;;;;5104885;28;20299;-69
2022/10/31 12:24:52;;;;;;;;;;;15.40;99.90;;;;;;5104924;28;19935;-68
2022/10/31 12:27:48;;;;;;;;;;;15.40;99.90;;;;;;5071994;28;20300;-70
2022/10/31 12:30:13;;;;;;;;;;;15.40;99.90;;;;;;5070764;28;19931;-70
2022/10/31 12:33:02;;;;;;;;;;;15.40;99.90;;;;;;5071246;28;20296;-70
2022/10/31 12:35:27;;;;;;;;;;;15.50;99.90;;;;;;5070115;28;20333;-69
2022/10/31 12:38:07;;;;;;;;;;;15.60;99.90;;;;;;5070495;28;20133;-69
2022/10/31 12:40:41;;;;;;;;;;;15.60;99.90;;;;;;5071020;28;19983;-69
2022/10/31 12:43:10;;;;;;;;;;;15.60;99.90;;;;;;5070218;28;19932;-69
2022/10/31 12:45:36;;;;;;;;;;;15.70;99.90;;;;;;5071916;28;20015;-69
2022/10/31 12:48:07;;;;;;;;;;;15.60;99.90;;;;;;5070456;28;19990;-72
2022/10/31 12:50:34;;;;;;;;;;;15.60;99.90;;;;;;5104502;28;19978;-69
2022/10/31 12:53:12;;;;;;;;;;;15.60;99.90;;;;;;5104031;28;19931;-70
2022/10/31 12:55:51;;;;;;;;;;;15.60;99.90;;;;;;5104715;28;20066;-68
2022/10/31 12:58:23;;;;;;;;;;;15.60;99.90;;;;;;5070468;28;19932;-68
2022/10/31 13:00:51;;;;;;;;;;;15.60;99.90;;;;;;5070436;28;19925;-69
2022/10/31 13:03:46;;;;;;;;;;;15.60;99.90;;;;;;5087132;28;20391;-68
2022/10/31 13:06:17;;;;;;;;;;;15.60;99.90;;;;;;5069899;28;19998;-70
2022/10/31 13:08:45;;;;;;;;;;;15.80;99.90;;;;;;5073638;28;19925;-68
2022/10/31 13:11:10;;;;;;;;;;;15.70;99.90;;;;;;5074971;28;19932;-69
2022/10/31 13:13:52;;;;;;;;;;;15.70;99.90;;;;;;5074362;28;19940;-69
2022/10/31 13:16:20;;;;;;;;;;;15.70;99.90;;;;;;5090916;28;19940;-69
2022/10/31 13:18:45;;;;;;;;;;;15.70;99.90;;;;;;5074026;28;19932;-68
2022/10/31 13:21:15;;;;;;;;;;;15.70;99.90;;;;;;5073639;28;19925;-68
2022/10/31 13:23:41;;;;;;;;;;;15.70;99.90;;;;;;5074631;28;19924;-68
2022/10/31 13:26:12;;;;;;;;;;;15.70;99.90;;;;;;5074337;28;19931;-68
2022/10/31 13:28:45;;;;;;;;;;;15.60;99.90;;;;;;5090714;28;19946;-68
2022/10/31 13:31:11;;;;;;;;;;;15.70;99.90;;;;;;5107677;28;19925;-69
2022/10/31 13:33:48;;;;;;;;;;;15.60;99.90;;;;;;5073280;28;19930;-69
2022/10/31 13:36:32;;;;;;;;;;;15.60;99.90;;;;;;5106714;28;19928;-69
2022/10/31 13:39:21;;;;;;;;;;;15.60;99.90;;;;;;5107701;28;19990;-69
2022/10/31 13:41:48;;;;;;;;;;;15.60;99.90;;;;;;5073280;28;19924;-69
2022/10/31 13:44:27;;;;;;;;;;;15.60;99.90;;;;;;5074370;28;19970;-69
2022/10/31 13:46:54;;;;;;;;;;;15.70;99.90;;;;;;5073399;28;20365;-70
2022/10/31 13:49:40;;;;;;;;;;;15.70;99.90;;;;;;5074344;28;19925;-69
2022/10/31 13:52:05;;;;;;;;;;;15.70;99.90;;;;;;5073827;28;19928;-69
2022/10/31 13:54:35;;;;;;;;;;;15.70;99.90;;;;;;5090048;28;20132;-71
2022/10/31 13:57:00;;;;;;;;;;;15.70;99.90;;;;;;5073292;28;19975;-72
2022/10/31 13:59:28;;;;;;;;;;;15.70;99.90;;;;;;5073054;28;19975;-72
2022/10/31 14:01:53;;;;;;;;;;;15.70;99.90;;;;;;5074271;28;19947;-72
2022/10/31 14:04:39;;;;;;;;;;;15.70;99.90;;;;;;5072766;28;19928;-72
2022/10/31 14:07:06;;;;;;;;;;;15.70;99.90;;;;;;5074178;28;19931;-71
2022/10/31 14:09:36;;;;;;;;;;;15.70;99.90;;;;;;5073216;28;19935;-71
2022/10/31 14:12:21;;;;;;;;;;;15.70;99.90;;;;;;5073861;28;20030;-71
2022/10/31 14:14:48;;;;;;;;;;;15.70;99.90;;;;;;5074068;28;19924;-71
2022/10/31 14:17:36;;;;;;;;;;;15.70;99.90;;;;;;5089274;28;20049;-71
2022/10/31 14:20:11;;;;;;;;;;;15.60;99.90;;;;;;5072404;28;20019;-72
2022/10/31 14:22:38;;;;;;;;;;;15.60;99.90;;;;;;5106590;28;19979;-70
2022/10/31 14:25:23;;;;;;;;;;;15.60;99.90;;;;;;5089302;28;19932;-71
2022/10/31 14:27:48;;;;;;;;;;;15.50;99.90;;;;;;5073481;28;19925;-72